»·PEaware :: N2442P KSBD-KEMT

N2442P :: KSBD-KEMT

FLIGHT INFORMATION

Flight Status: Arrived
Operator: Privately registered:
United States
More flights under this callsign
Pilot: Ken Q. (14290)
Aircraft: MOONEY M-20K/M ENCORE BRAVO
(M20T)
More flights by this aircraft type
Origin: KSBD San Bernardino Intl
United States
Destination: KEMT El Monte
United States
More flights between these airports :: More routes between these airports
Route: +KSBD POM KEMT
File this flight plan on PilotEdge
Remarks:
Altitude:
(Current/Filed)
4,500ft
Speed:
(Current/Filed)
175kts
Departed: 07-Dec-18 08:36 AM
Arrived: 07-Dec-18 08:58 AM
Distance/Time
Traveled:
40nm/0:21
Distance/Time
To Go:
Arrived

Flight Plot

Page will automatically refresh every two minutes.

Flight plan parsing failed; only flown route is shown


Map Options




Map Legend


Flown Route
Filed Route
Departure Airport
Arrival Airport
Navaid (VOR, NDB)
Fix

Horizontal Profiles

Position Reports

Time Latitude Longitude Heading Altitude Ground
Speed
07-Dec-18 08:09 34.103869 -117.245786 88 1122ft 0kts
07-Dec-18 08:10 34.103869 -117.245786 88 1122ft 0kts
07-Dec-18 08:11 34.103869 -117.245786 88 1122ft 0kts
07-Dec-18 08:12 34.103869 -117.245786 88 1122ft 0kts
07-Dec-18 08:13 34.103869 -117.245786 88 1122ft 0kts
07-Dec-18 08:14 34.103869 -117.245786 88 1122ft 0kts
07-Dec-18 08:15 34.103869 -117.245786 88 1122ft 0kts
07-Dec-18 08:16 34.103869 -117.245786 88 1122ft 0kts
07-Dec-18 08:17 34.103869 -117.245786 88 1122ft 0kts
07-Dec-18 08:20 34.103870 -117.245785 88 1122ft 0kts
07-Dec-18 08:20 34.103870 -117.245785 88 1122ft 0kts
07-Dec-18 08:20 34.103870 -117.245785 88 1122ft 0kts
07-Dec-18 08:22 34.103870 -117.245785 88 1122ft 0kts
07-Dec-18 08:23 34.103870 -117.245784 88 1122ft 0kts
07-Dec-18 08:24 34.103870 -117.245784 88 1122ft 0kts
07-Dec-18 08:25 34.103870 -117.245783 88 1122ft 0kts
07-Dec-18 08:26 34.103870 -117.245783 88 1122ft 0kts
07-Dec-18 08:27 34.103870 -117.245783 88 1122ft 0kts
07-Dec-18 08:28 34.103870 -117.245782 88 1122ft 0kts
07-Dec-18 08:29 34.100954 -117.244445 178 1122ft 22kts
07-Dec-18 08:30 34.096260 -117.242023 178 1122ft 16kts
07-Dec-18 08:31 34.094360 -117.244539 248 1122ft 12kts
07-Dec-18 08:32 34.093031 -117.249049 249 1122ft 15kts
07-Dec-18 08:33 34.091707 -117.250639 158 1122ft 0kts
07-Dec-18 08:34 34.091702 -117.250636 158 1122ft 0kts
07-Dec-18 08:35 34.091340 -117.250475 160 1122ft 15kts
07-Dec-18 08:36 34.093101 -117.242530 69 1130ft 91kts
07-Dec-18 08:37 34.098903 -117.205828 127 1744ft 133kts
07-Dec-18 08:38 34.075954 -117.224768 260 2408ft 142kts
07-Dec-18 08:39 34.070950 -117.274269 266 2591ft 158kts
07-Dec-18 08:40 34.066871 -117.328369 266 2585ft 164kts
07-Dec-18 08:41 34.062791 -117.383081 266 2583ft 163kts
07-Dec-18 08:42 34.059443 -117.434672 268 3044ft 142kts
07-Dec-18 08:42 34.057661 -117.473662 269 3542ft 137kts
07-Dec-18 08:43 34.056227 -117.518093 269 4130ft 129kts
07-Dec-18 08:44 34.055111 -117.562962 269 4490ft 148kts
07-Dec-18 08:45 34.054790 -117.616208 272 4477ft 164kts
07-Dec-18 08:46 34.057761 -117.670621 276 4476ft 162kts
07-Dec-18 08:48 34.062639 -117.734445 276 4307ft 169kts
07-Dec-18 08:48 34.066140 -117.780556 276 3962ft 155kts
07-Dec-18 08:49 34.068914 -117.821790 276 3461ft 127kts
07-Dec-18 08:50 34.071029 -117.861892 276 3062ft 102kts
07-Dec-18 08:51 34.080378 -117.889427 310 2463ft 83kts
07-Dec-18 08:52 34.092499 -117.916210 297 1951ft 110kts
07-Dec-18 08:53 34.107587 -117.949765 298 1389ft 112kts
07-Dec-18 08:54 34.116139 -117.979218 284 1250ft 75kts
07-Dec-18 08:55 34.115676 -118.005482 256 1298ft 86kts
07-Dec-18 08:56 34.101783 -118.026091 200 774ft 84kts
07-Dec-18 08:57 34.083987 -118.036020 199 299ft 10kts
07-Dec-18 08:58 34.082992 -118.035971 115 299ft 0kts
07-Dec-18 08:59 34.081951 -118.035856 101 299ft 6kts
07-Dec-18 09:00 34.082083 -118.035495 26 299ft 0kts
07-Dec-18 09:01 34.082083 -118.035495 26 299ft 0kts

Navigation Log

Ident Type
Flight plan parsing failed, navigation log unavailable